sensor_id;sensor_type;location;lat;lon;timestamp;P1;durP1;ratioP1;P2;durP2;ratioP2
691;SDS011;328;50.086;8.576;2023-05-31T00:00:36;9.40;;;2.40;;
691;SDS011;328;50.086;8.576;2023-05-31T00:03:04;5.43;;;2.00;;
691;SDS011;328;50.086;8.576;2023-05-31T00:05:31;3.83;;;2.40;;
691;SDS011;328;50.086;8.576;2023-05-31T00:07:59;4.93;;;1.73;;
691;SDS011;328;50.086;8.576;2023-05-31T00:10:26;5.50;;;2.43;;
691;SDS011;328;50.086;8.576;2023-05-31T00:12:55;4.67;;;2.10;;
691;SDS011;328;50.086;8.576;2023-05-31T00:15:23;8.10;;;3.30;;
691;SDS011;328;50.086;8.576;2023-05-31T00:17:51;3.43;;;1.87;;
691;SDS011;328;50.086;8.576;2023-05-31T00:20:20;3.60;;;2.37;;
691;SDS011;328;50.086;8.576;2023-05-31T00:22:48;4.10;;;2.00;;
691;SDS011;328;50.086;8.576;2023-05-31T00:25:15;8.70;;;2.73;;
691;SDS011;328;50.086;8.576;2023-05-31T00:27:43;6.40;;;3.40;;
691;SDS011;328;50.086;8.576;2023-05-31T00:30:12;4.23;;;1.93;;
691;SDS011;328;50.086;8.576;2023-05-31T00:32:40;5.67;;;2.27;;
691;SDS011;328;50.086;8.576;2023-05-31T00:35:08;4.37;;;2.10;;
691;SDS011;328;50.086;8.576;2023-05-31T00:37:36;6.30;;;3.60;;
691;SDS011;328;50.086;8.576;2023-05-31T00:40:04;5.20;;;2.50;;
691;SDS011;328;50.086;8.576;2023-05-31T00:42:32;7.03;;;2.43;;
691;SDS011;328;50.086;8.576;2023-05-31T00:45:00;6.53;;;2.70;;
691;SDS011;328;50.086;8.576;2023-05-31T00:47:29;5.80;;;2.43;;
691;SDS011;328;50.086;8.576;2023-05-31T00:49:56;5.80;;;2.07;;
691;SDS011;328;50.086;8.576;2023-05-31T00:52:25;5.47;;;2.00;;
691;SDS011;328;50.086;8.576;2023-05-31T00:54:53;9.10;;;2.33;;
691;SDS011;328;50.086;8.576;2023-05-31T00:57:21;3.70;;;2.00;;
691;SDS011;328;50.086;8.576;2023-05-31T00:59:49;4.00;;;2.27;;
691;SDS011;328;50.086;8.576;2023-05-31T01:02:17;5.70;;;2.47;;
691;SDS011;328;50.086;8.576;2023-05-31T01:04:46;9.43;;;4.93;;
691;SDS011;328;50.086;8.576;2023-05-31T01:07:18;3.27;;;2.30;;
691;SDS011;328;50.086;8.576;2023-05-31T01:09:45;5.97;;;2.40;;
691;SDS011;328;50.086;8.576;2023-05-31T01:12:14;4.30;;;2.30;;
691;SDS011;328;50.086;8.576;2023-05-31T01:14:47;5.23;;;2.70;;
691;SDS011;328;50.086;8.576;2023-05-31T01:17:24;8.20;;;2.83;;
691;SDS011;328;50.086;8.576;2023-05-31T01:19:59;6.30;;;2.73;;
691;SDS011;328;50.086;8.576;2023-05-31T01:22:40;3.00;;;2.20;;
691;SDS011;328;50.086;8.576;2023-05-31T01:25:25;11.20;;;3.47;;
691;SDS011;328;50.086;8.576;2023-05-31T01:27:56;4.97;;;2.70;;
691;SDS011;328;50.086;8.576;2023-05-31T01:30:27;5.80;;;2.40;;
691;SDS011;328;50.086;8.576;2023-05-31T01:32:56;7.87;;;3.33;;
691;SDS011;328;50.086;8.576;2023-05-31T01:35:24;4.90;;;2.97;;
691;SDS011;328;50.086;8.576;2023-05-31T01:37:53;4.70;;;2.63;;
691;SDS011;328;50.086;8.576;2023-05-31T01:40:20;3.70;;;2.53;;
691;SDS011;328;50.086;8.576;2023-05-31T01:42:48;8.07;;;2.97;;
691;SDS011;328;50.086;8.576;2023-05-31T01:45:17;5.30;;;2.90;;
691;SDS011;328;50.086;8.576;2023-05-31T01:47:45;6.13;;;2.83;;
691;SDS011;328;50.086;8.576;2023-05-31T01:50:14;2.57;;;2.10;;
691;SDS011;328;50.086;8.576;2023-05-31T01:52:43;5.03;;;2.40;;
691;SDS011;328;50.086;8.576;2023-05-31T01:55:11;5.30;;;2.67;;
691;SDS011;328;50.086;8.576;2023-05-31T01:57:38;4.27;;;2.53;;
691;SDS011;328;50.086;8.576;2023-05-31T02:00:10;4.83;;;2.80;;
691;SDS011;328;50.086;8.576;2023-05-31T02:02:40;3.60;;;2.23;;
691;SDS011;328;50.086;8.576;2023-05-31T02:05:08;6.70;;;3.47;;
691;SDS011;328;50.086;8.576;2023-05-31T02:07:39;3.90;;;2.70;;
691;SDS011;328;50.086;8.576;2023-05-31T02:10:07;4.63;;;2.43;;
691;SDS011;328;50.086;8.576;2023-05-31T02:12:36;9.13;;;3.47;;
691;SDS011;328;50.086;8.576;2023-05-31T02:15:04;5.43;;;2.50;;
691;SDS011;328;50.086;8.576;2023-05-31T02:17:37;5.20;;;2.83;;
691;SDS011;328;50.086;8.576;2023-05-31T02:20:09;3.83;;;2.70;;
691;SDS011;328;50.086;8.576;2023-05-31T02:22:39;6.83;;;3.30;;
691;SDS011;328;50.086;8.576;2023-05-31T02:25:07;4.47;;;2.60;;
691;SDS011;328;50.086;8.576;2023-05-31T02:27:35;4.50;;;2.90;;
691;SDS011;328;50.086;8.576;2023-05-31T02:30:03;6.30;;;2.83;;
691;SDS011;328;50.086;8.576;2023-05-31T02:32:31;5.00;;;3.00;;
691;SDS011;328;50.086;8.576;2023-05-31T02:35:02;8.83;;;4.10;;
691;SDS011;328;50.086;8.576;2023-05-31T02:37:32;6.60;;;3.43;;
691;SDS011;328;50.086;8.576;2023-05-31T02:39:59;8.63;;;3.00;;
691;SDS011;328;50.086;8.576;2023-05-31T02:42:27;5.57;;;2.90;;
691;SDS011;328;50.086;8.576;2023-05-31T02:44:55;4.70;;;2.80;;
691;SDS011;328;50.086;8.576;2023-05-31T02:47:22;5.80;;;3.00;;
691;SDS011;328;50.086;8.576;2023-05-31T02:49:50;7.40;;;3.00;;
691;SDS011;328;50.086;8.576;2023-05-31T02:52:17;4.50;;;2.90;;
691;SDS011;328;50.086;8.576;2023-05-31T02:54:46;8.00;;;2.93;;
691;SDS011;328;50.086;8.576;2023-05-31T02:57:14;7.60;;;3.00;;
691;SDS011;328;50.086;8.576;2023-05-31T02:59:42;6.63;;;2.93;;
691;SDS011;328;50.086;8.576;2023-05-31T03:02:10;6.00;;;2.93;;
691;SDS011;328;50.086;8.576;2023-05-31T03:04:38;6.13;;;2.80;;
691;SDS011;328;50.086;8.576;2023-05-31T03:07:08;3.10;;;2.57;;
691;SDS011;328;50.086;8.576;2023-05-31T03:09:35;5.20;;;3.30;;
691;SDS011;328;50.086;8.576;2023-05-31T03:12:05;11.47;;;3.60;;
691;SDS011;328;50.086;8.576;2023-05-31T03:14:33;7.20;;;3.63;;
691;SDS011;328;50.086;8.576;2023-05-31T03:17:00;5.93;;;3.57;;
691;SDS011;328;50.086;8.576;2023-05-31T03:19:29;6.23;;;3.10;;
691;SDS011;328;50.086;8.576;2023-05-31T03:21:56;6.37;;;3.57;;
691;SDS011;328;50.086;8.576;2023-05-31T03:24:24;6.60;;;3.10;;
691;SDS011;328;50.086;8.576;2023-05-31T03:26:52;8.20;;;2.90;;
691;SDS011;328;50.086;8.576;2023-05-31T03:29:22;5.90;;;3.10;;
691;SDS011;328;50.086;8.576;2023-05-31T03:31:49;5.90;;;3.03;;
691;SDS011;328;50.086;8.576;2023-05-31T03:34:17;6.10;;;3.17;;
691;SDS011;328;50.086;8.576;2023-05-31T03:36:45;5.63;;;3.03;;
691;SDS011;328;50.086;8.576;2023-05-31T03:39:12;5.73;;;3.43;;
691;SDS011;328;50.086;8.576;2023-05-31T03:41:40;4.70;;;2.90;;
691;SDS011;328;50.086;8.576;2023-05-31T03:44:07;5.43;;;2.73;;
691;SDS011;328;50.086;8.576;2023-05-31T03:46:37;6.17;;;3.83;;
691;SDS011;328;50.086;8.576;2023-05-31T03:49:04;4.73;;;2.50;;
691;SDS011;328;50.086;8.576;2023-05-31T03:51:32;3.23;;;2.80;;
691;SDS011;328;50.086;8.576;2023-05-31T03:54:00;5.33;;;3.00;;
691;SDS011;328;50.086;8.576;2023-05-31T03:56:27;5.50;;;3.20;;
691;SDS011;328;50.086;8.576;2023-05-31T03:58:55;3.63;;;2.53;;
691;SDS011;328;50.086;8.576;2023-05-31T04:01:22;3.83;;;3.00;;
691;SDS011;328;50.086;8.576;2023-05-31T04:03:51;3.43;;;2.57;;
691;SDS011;328;50.086;8.576;2023-05-31T04:06:19;7.70;;;3.27;;
691;SDS011;328;50.086;8.576;2023-05-31T04:08:48;9.70;;;3.27;;
691;SDS011;328;50.086;8.576;2023-05-31T04:11:16;4.80;;;2.63;;
691;SDS011;328;50.086;8.576;2023-05-31T04:13:43;5.07;;;3.03;;
691;SDS011;328;50.086;8.576;2023-05-31T04:16:11;8.70;;;3.23;;
691;SDS011;328;50.086;8.576;2023-05-31T04:18:38;7.20;;;3.37;;
691;SDS011;328;50.086;8.576;2023-05-31T04:21:08;4.17;;;2.73;;
691;SDS011;328;50.086;8.576;2023-05-31T04:23:35;4.87;;;3.60;;
691;SDS011;328;50.086;8.576;2023-05-31T04:26:03;4.83;;;3.33;;
691;SDS011;328;50.086;8.576;2023-05-31T04:28:30;6.33;;;3.30;;
691;SDS011;328;50.086;8.576;2023-05-31T04:30:58;5.07;;;2.83;;
691;SDS011;328;50.086;8.576;2023-05-31T04:33:27;5.43;;;3.40;;
691;SDS011;328;50.086;8.576;2023-05-31T04:35:56;4.93;;;3.30;;
691;SDS011;328;50.086;8.576;2023-05-31T04:38:26;4.93;;;3.20;;
691;SDS011;328;50.086;8.576;2023-05-31T04:40:54;6.33;;;3.10;;
691;SDS011;328;50.086;8.576;2023-05-31T04:43:24;5.60;;;3.57;;
691;SDS011;328;50.086;8.576;2023-05-31T04:45:52;4.50;;;3.03;;
691;SDS011;328;50.086;8.576;2023-05-31T04:48:20;3.97;;;3.27;;
691;SDS011;328;50.086;8.576;2023-05-31T04:50:48;4.47;;;3.07;;
691;SDS011;328;50.086;8.576;2023-05-31T04:53:15;8.43;;;3.00;;
691;SDS011;328;50.086;8.576;2023-05-31T04:55:44;7.03;;;3.30;;
691;SDS011;328;50.086;8.576;2023-05-31T04:58:12;6.60;;;2.90;;
691;SDS011;328;50.086;8.576;2023-05-31T05:00:39;3.90;;;2.80;;
691;SDS011;328;50.086;8.576;2023-05-31T05:03:07;3.57;;;2.70;;
691;SDS011;328;50.086;8.576;2023-05-31T05:05:36;4.03;;;3.00;;
691;SDS011;328;50.086;8.576;2023-05-31T05:08:04;8.97;;;4.03;;
691;SDS011;328;50.086;8.576;2023-05-31T05:10:31;5.30;;;3.10;;
691;SDS011;328;50.086;8.576;2023-05-31T05:13:00;9.10;;;3.60;;
691;SDS011;328;50.086;8.576;2023-05-31T05:15:28;7.97;;;3.00;;
691;SDS011;328;50.086;8.576;2023-05-31T05:17:55;8.53;;;2.77;;
691;SDS011;328;50.086;8.576;2023-05-31T05:20:23;7.10;;;3.23;;
691;SDS011;328;50.086;8.576;2023-05-31T05:22:50;6.70;;;3.47;;
691;SDS011;328;50.086;8.576;2023-05-31T05:25:19;4.07;;;2.73;;
691;SDS011;328;50.086;8.576;2023-05-31T05:27:48;7.93;;;3.13;;
691;SDS011;328;50.086;8.576;2023-05-31T05:30:17;6.77;;;2.90;;
691;SDS011;328;50.086;8.576;2023-05-31T05:32:45;6.77;;;2.60;;
691;SDS011;328;50.086;8.576;2023-05-31T05:35:13;4.40;;;2.70;;
691;SDS011;328;50.086;8.576;2023-05-31T05:37:40;6.30;;;3.40;;
691;SDS011;328;50.086;8.576;2023-05-31T05:40:08;4.07;;;2.50;;
691;SDS011;328;50.086;8.576;2023-05-31T05:42:36;6.03;;;2.67;;
691;SDS011;328;50.086;8.576;2023-05-31T05:45:04;9.20;;;4.07;;
691;SDS011;328;50.086;8.576;2023-05-31T05:47:35;4.90;;;3.10;;
691;SDS011;328;50.086;8.576;2023-05-31T05:50:03;7.63;;;3.23;;
691;SDS011;328;50.086;8.576;2023-05-31T05:52:31;4.23;;;2.70;;
691;SDS011;328;50.086;8.576;2023-05-31T05:54:59;5.80;;;2.70;;
691;SDS011;328;50.086;8.576;2023-05-31T05:57:26;6.87;;;2.80;;
691;SDS011;328;50.086;8.576;2023-05-31T05:59:54;5.73;;;3.00;;
691;SDS011;328;50.086;8.576;2023-05-31T06:02:21;5.87;;;2.73;;
691;SDS011;328;50.086;8.576;2023-05-31T06:04:50;3.63;;;2.47;;
691;SDS011;328;50.086;8.576;2023-05-31T06:07:18;5.00;;;2.90;;
691;SDS011;328;50.086;8.576;2023-05-31T06:09:47;3.63;;;3.00;;
691;SDS011;328;50.086;8.576;2023-05-31T06:12:15;6.97;;;2.73;;
691;SDS011;328;50.086;8.576;2023-05-31T06:14:42;6.90;;;2.60;;
691;SDS011;328;50.086;8.576;2023-05-31T06:17:10;9.43;;;3.20;;
691;SDS011;328;50.086;8.576;2023-05-31T06:19:37;3.90;;;2.60;;
691;SDS011;328;50.086;8.576;2023-05-31T06:22:06;7.17;;;3.03;;
691;SDS011;328;50.086;8.576;2023-05-31T06:24:34;6.70;;;3.10;;
691;SDS011;328;50.086;8.576;2023-05-31T06:27:01;6.43;;;2.93;;
691;SDS011;328;50.086;8.576;2023-05-31T06:29:29;3.50;;;2.30;;
691;SDS011;328;50.086;8.576;2023-05-31T06:32:00;3.93;;;2.80;;
691;SDS011;328;50.086;8.576;2023-05-31T06:34:45;5.87;;;2.97;;
691;SDS011;328;50.086;8.576;2023-05-31T06:37:14;4.53;;;2.23;;
691;SDS011;328;50.086;8.576;2023-05-31T06:39:41;5.17;;;2.40;;
691;SDS011;328;50.086;8.576;2023-05-31T06:42:09;7.17;;;2.77;;
691;SDS011;328;50.086;8.576;2023-05-31T06:44:37;5.87;;;2.70;;
691;SDS011;328;50.086;8.576;2023-05-31T06:47:20;5.93;;;2.53;;
691;SDS011;328;50.086;8.576;2023-05-31T06:49:48;3.33;;;2.30;;
691;SDS011;328;50.086;8.576;2023-05-31T06:52:17;6.03;;;2.43;;
691;SDS011;328;50.086;8.576;2023-05-31T06:54:45;3.70;;;2.20;;
691;SDS011;328;50.086;8.576;2023-05-31T06:57:12;4.87;;;2.70;;
691;SDS011;328;50.086;8.576;2023-05-31T06:59:40;4.83;;;2.53;;
691;SDS011;328;50.086;8.576;2023-05-31T07:02:08;5.43;;;2.30;;
691;SDS011;328;50.086;8.576;2023-05-31T07:04:36;3.50;;;2.10;;
691;SDS011;328;50.086;8.576;2023-05-31T07:07:03;7.73;;;2.63;;
691;SDS011;328;50.086;8.576;2023-05-31T07:09:34;4.20;;;2.10;;
691;SDS011;328;50.086;8.576;2023-05-31T07:12:01;4.33;;;2.73;;
691;SDS011;328;50.086;8.576;2023-05-31T07:14:29;5.33;;;2.27;;
691;SDS011;328;50.086;8.576;2023-05-31T07:16:57;5.33;;;2.23;;
691;SDS011;328;50.086;8.576;2023-05-31T07:19:24;5.60;;;2.17;;
691;SDS011;328;50.086;8.576;2023-05-31T07:21:52;4.43;;;2.70;;
691;SDS011;328;50.086;8.576;2023-05-31T07:24:20;5.17;;;2.73;;
691;SDS011;328;50.086;8.576;2023-05-31T07:26:48;2.70;;;2.00;;
691;SDS011;328;50.086;8.576;2023-05-31T07:29:16;5.50;;;1.93;;
691;SDS011;328;50.086;8.576;2023-05-31T07:31:44;4.17;;;2.13;;
691;SDS011;328;50.086;8.576;2023-05-31T07:34:11;4.27;;;2.17;;
691;SDS011;328;50.086;8.576;2023-05-31T07:36:39;3.57;;;2.30;;
691;SDS011;328;50.086;8.576;2023-05-31T07:39:08;4.40;;;1.90;;
691;SDS011;328;50.086;8.576;2023-05-31T07:41:36;5.40;;;2.43;;
691;SDS011;328;50.086;8.576;2023-05-31T07:44:05;5.90;;;2.40;;
691;SDS011;328;50.086;8.576;2023-05-31T07:46:33;6.67;;;2.70;;
691;SDS011;328;50.086;8.576;2023-05-31T07:49:02;2.43;;;1.80;;
691;SDS011;328;50.086;8.576;2023-05-31T07:51:30;6.20;;;1.63;;
691;SDS011;328;50.086;8.576;2023-05-31T07:53:58;3.27;;;2.00;;
691;SDS011;328;50.086;8.576;2023-05-31T07:56:25;3.30;;;1.70;;
691;SDS011;328;50.086;8.576;2023-05-31T07:58:53;3.00;;;1.53;;
691;SDS011;328;50.086;8.576;2023-05-31T08:01:22;5.60;;;3.33;;
691;SDS011;328;50.086;8.576;2023-05-31T08:03:49;2.77;;;1.90;;
691;SDS011;328;50.086;8.576;2023-05-31T08:06:17;5.07;;;2.20;;
691;SDS011;328;50.086;8.576;2023-05-31T08:08:45;5.30;;;1.87;;
691;SDS011;328;50.086;8.576;2023-05-31T08:11:12;4.90;;;1.90;;
691;SDS011;328;50.086;8.576;2023-05-31T08:13:40;5.67;;;2.10;;
691;SDS011;328;50.086;8.576;2023-05-31T08:16:07;3.23;;;1.53;;
691;SDS011;328;50.086;8.576;2023-05-31T08:18:36;3.87;;;2.57;;
691;SDS011;328;50.086;8.576;2023-05-31T08:21:04;4.53;;;2.23;;
691;SDS011;328;50.086;8.576;2023-05-31T08:23:31;2.57;;;1.60;;
691;SDS011;328;50.086;8.576;2023-05-31T08:25:59;3.50;;;2.03;;
691;SDS011;328;50.086;8.576;2023-05-31T08:28:27;3.13;;;1.80;;
691;SDS011;328;50.086;8.576;2023-05-31T08:30:56;3.53;;;1.97;;
691;SDS011;328;50.086;8.576;2023-05-31T08:33:26;2.60;;;1.87;;
691;SDS011;328;50.086;8.576;2023-05-31T08:35:58;6.13;;;2.30;;
691;SDS011;328;50.086;8.576;2023-05-31T08:38:27;2.70;;;1.80;;
691;SDS011;328;50.086;8.576;2023-05-31T08:40:55;5.30;;;1.70;;
691;SDS011;328;50.086;8.576;2023-05-31T08:43:26;3.00;;;1.40;;
691;SDS011;328;50.086;8.576;2023-05-31T08:45:54;2.13;;;1.67;;
691;SDS011;328;50.086;8.576;2023-05-31T08:48:24;3.03;;;1.63;;
691;SDS011;328;50.086;8.576;2023-05-31T08:50:55;4.47;;;2.67;;
691;SDS011;328;50.086;8.576;2023-05-31T08:53:25;3.37;;;1.57;;
691;SDS011;328;50.086;8.576;2023-05-31T08:55:53;3.53;;;1.57;;
691;SDS011;328;50.086;8.576;2023-05-31T08:58:21;4.60;;;1.47;;
691;SDS011;328;50.086;8.576;2023-05-31T09:00:49;3.80;;;1.67;;
691;SDS011;328;50.086;8.576;2023-05-31T09:03:17;2.80;;;1.60;;
691;SDS011;328;50.086;8.576;2023-05-31T09:05:46;2.93;;;1.93;;
691;SDS011;328;50.086;8.576;2023-05-31T09:08:14;2.40;;;1.93;;
691;SDS011;328;50.086;8.576;2023-05-31T09:10:43;6.63;;;1.90;;
691;SDS011;328;50.086;8.576;2023-05-31T09:13:11;3.10;;;1.77;;
691;SDS011;328;50.086;8.576;2023-05-31T09:15:38;1.73;;;1.13;;
691;SDS011;328;50.086;8.576;2023-05-31T09:18:13;3.40;;;1.77;;
691;SDS011;328;50.086;8.576;2023-05-31T09:20:42;2.20;;;1.03;;
691;SDS011;328;50.086;8.576;2023-05-31T09:23:13;2.63;;;1.53;;
691;SDS011;328;50.086;8.576;2023-05-31T09:25:45;5.00;;;2.03;;
691;SDS011;328;50.086;8.576;2023-05-31T09:28:14;2.70;;;1.47;;
691;SDS011;328;50.086;8.576;2023-05-31T09:30:42;3.07;;;2.00;;
691;SDS011;328;50.086;8.576;2023-05-31T09:33:10;1.50;;;0.90;;
691;SDS011;328;50.086;8.576;2023-05-31T09:35:37;3.50;;;1.90;;
691;SDS011;328;50.086;8.576;2023-05-31T09:38:10;1.90;;;1.60;;
691;SDS011;328;50.086;8.576;2023-05-31T09:40:37;2.20;;;1.63;;
691;SDS011;328;50.086;8.576;2023-05-31T09:43:06;4.90;;;1.37;;
691;SDS011;328;50.086;8.576;2023-05-31T09:45:35;2.30;;;1.77;;
691;SDS011;328;50.086;8.576;2023-05-31T09:48:02;4.83;;;1.43;;
691;SDS011;328;50.086;8.576;2023-05-31T09:50:30;2.27;;;1.43;;
691;SDS011;328;50.086;8.576;2023-05-31T09:52:57;2.30;;;1.20;;
691;SDS011;328;50.086;8.576;2023-05-31T09:55:35;2.20;;;1.50;;
691;SDS011;328;50.086;8.576;2023-05-31T09:58:07;2.77;;;1.60;;
691;SDS011;328;50.086;8.576;2023-05-31T10:00:37;3.90;;;1.50;;
691;SDS011;328;50.086;8.576;2023-05-31T10:03:11;4.97;;;1.63;;
691;SDS011;328;50.086;8.576;2023-05-31T10:05:38;3.00;;;1.70;;
691;SDS011;328;50.086;8.576;2023-05-31T10:08:06;1.40;;;1.10;;
691;SDS011;328;50.086;8.576;2023-05-31T10:10:34;3.03;;;1.43;;
691;SDS011;328;50.086;8.576;2023-05-31T10:13:02;2.80;;;1.63;;
691;SDS011;328;50.086;8.576;2023-05-31T10:15:32;2.20;;;1.47;;
691;SDS011;328;50.086;8.576;2023-05-31T10:18:00;4.97;;;1.87;;
691;SDS011;328;50.086;8.576;2023-05-31T10:20:32;3.37;;;1.50;;
691;SDS011;328;50.086;8.576;2023-05-31T10:23:07;4.20;;;1.33;;
691;SDS011;328;50.086;8.576;2023-05-31T10:25:38;2.80;;;1.47;;
691;SDS011;328;50.086;8.576;2023-05-31T10:28:09;2.20;;;1.17;;
691;SDS011;328;50.086;8.576;2023-05-31T10:30:40;5.87;;;1.33;;
691;SDS011;328;50.086;8.576;2023-05-31T10:33:10;2.10;;;1.00;;
691;SDS011;328;50.086;8.576;2023-05-31T10:35:39;2.03;;;1.10;;
691;SDS011;328;50.086;8.576;2023-05-31T10:38:07;1.90;;;1.30;;
691;SDS011;328;50.086;8.576;2023-05-31T10:40:36;2.77;;;1.47;;
691;SDS011;328;50.086;8.576;2023-05-31T10:43:09;3.83;;;1.50;;
691;SDS011;328;50.086;8.576;2023-05-31T10:45:43;2.40;;;1.43;;
691;SDS011;328;50.086;8.576;2023-05-31T10:48:19;4.10;;;1.53;;
691;SDS011;328;50.086;8.576;2023-05-31T10:50:51;2.70;;;1.43;;
691;SDS011;328;50.086;8.576;2023-05-31T10:53:19;2.77;;;1.30;;
691;SDS011;328;50.086;8.576;2023-05-31T10:55:47;1.77;;;0.90;;
691;SDS011;328;50.086;8.576;2023-05-31T10:58:25;4.47;;;1.10;;
691;SDS011;328;50.086;8.576;2023-05-31T11:00:55;3.10;;;1.80;;
691;SDS011;328;50.086;8.576;2023-05-31T11:03:24;2.10;;;1.30;;
691;SDS011;328;50.086;8.576;2023-05-31T11:05:54;2.03;;;1.27;;
691;SDS011;328;50.086;8.576;2023-05-31T11:08:22;2.60;;;1.13;;
691;SDS011;328;50.086;8.576;2023-05-31T11:10:50;4.10;;;1.30;;
691;SDS011;328;50.086;8.576;2023-05-31T11:13:17;3.50;;;1.77;;
691;SDS011;328;50.086;8.576;2023-05-31T11:15:48;1.73;;;1.20;;
691;SDS011;328;50.086;8.576;2023-05-31T11:18:22;3.43;;;1.40;;
691;SDS011;328;50.086;8.576;2023-05-31T11:20:50;3.67;;;1.37;;
691;SDS011;328;50.086;8.576;2023-05-31T11:23:24;2.80;;;1.20;;
691;SDS011;328;50.086;8.576;2023-05-31T11:26:07;4.30;;;1.17;;
691;SDS011;328;50.086;8.576;2023-05-31T11:28:53;3.37;;;1.70;;
691;SDS011;328;50.086;8.576;2023-05-31T11:34:30;1.80;;;1.10;;
691;SDS011;328;50.086;8.576;2023-05-31T11:37:00;4.33;;;1.63;;
691;SDS011;328;50.086;8.576;2023-05-31T11:39:29;3.97;;;1.80;;
691;SDS011;328;50.086;8.576;2023-05-31T11:41:57;5.10;;;1.30;;
691;SDS011;328;50.086;8.576;2023-05-31T11:44:28;2.20;;;1.70;;
691;SDS011;328;50.086;8.576;2023-05-31T11:47:00;1.90;;;1.50;;
691;SDS011;328;50.086;8.576;2023-05-31T11:49:32;2.47;;;1.07;;
691;SDS011;328;50.086;8.576;2023-05-31T11:52:00;2.40;;;1.40;;
691;SDS011;328;50.086;8.576;2023-05-31T11:54:29;2.43;;;1.27;;
691;SDS011;328;50.086;8.576;2023-05-31T11:56:59;2.03;;;1.10;;
691;SDS011;328;50.086;8.576;2023-05-31T11:59:29;2.60;;;1.37;;
691;SDS011;328;50.086;8.576;2023-05-31T12:01:59;2.60;;;1.20;;
691;SDS011;328;50.086;8.576;2023-05-31T12:04:27;2.83;;;1.67;;
691;SDS011;328;50.086;8.576;2023-05-31T12:07:00;3.00;;;1.17;;
691;SDS011;328;50.086;8.576;2023-05-31T12:09:28;4.70;;;1.17;;
691;SDS011;328;50.086;8.576;2023-05-31T12:11:56;3.03;;;1.17;;
691;SDS011;328;50.086;8.576;2023-05-31T12:14:24;2.83;;;1.50;;
691;SDS011;328;50.086;8.576;2023-05-31T12:16:52;3.30;;;3.00;;
691;SDS011;328;50.086;8.576;2023-05-31T12:19:20;3.40;;;1.57;;
691;SDS011;328;50.086;8.576;2023-05-31T12:21:49;2.10;;;1.20;;
691;SDS011;328;50.086;8.576;2023-05-31T12:24:17;2.10;;;1.13;;
691;SDS011;328;50.086;8.576;2023-05-31T12:26:45;2.20;;;1.17;;
691;SDS011;328;50.086;8.576;2023-05-31T12:29:14;3.43;;;1.53;;
691;SDS011;328;50.086;8.576;2023-05-31T12:31:42;1.67;;;1.03;;
691;SDS011;328;50.086;8.576;2023-05-31T12:34:10;1.47;;;1.23;;
691;SDS011;328;50.086;8.576;2023-05-31T12:36:40;3.87;;;1.37;;
691;SDS011;328;50.086;8.576;2023-05-31T12:39:10;1.77;;;1.63;;
691;SDS011;328;50.086;8.576;2023-05-31T12:41:42;2.00;;;1.20;;
691;SDS011;328;50.086;8.576;2023-05-31T12:44:11;3.57;;;1.27;;
691;SDS011;328;50.086;8.576;2023-05-31T12:46:39;2.10;;;1.20;;
691;SDS011;328;50.086;8.576;2023-05-31T12:49:11;1.40;;;1.10;;
691;SDS011;328;50.086;8.576;2023-05-31T12:51:41;1.37;;;1.00;;
691;SDS011;328;50.086;8.576;2023-05-31T12:54:15;2.23;;;1.43;;
691;SDS011;328;50.086;8.576;2023-05-31T12:56:43;2.17;;;1.13;;
691;SDS011;328;50.086;8.576;2023-05-31T12:59:11;1.90;;;1.03;;
691;SDS011;328;50.086;8.576;2023-05-31T13:01:38;2.67;;;1.40;;
691;SDS011;328;50.086;8.576;2023-05-31T13:04:08;1.40;;;1.20;;
691;SDS011;328;50.086;8.576;2023-05-31T13:06:37;3.30;;;1.20;;
691;SDS011;328;50.086;8.576;2023-05-31T13:09:05;2.90;;;1.30;;
691;SDS011;328;50.086;8.576;2023-05-31T13:11:35;4.60;;;1.00;;
691;SDS011;328;50.086;8.576;2023-05-31T13:14:03;1.70;;;1.07;;
691;SDS011;328;50.086;8.576;2023-05-31T13:16:32;3.03;;;1.20;;
691;SDS011;328;50.086;8.576;2023-05-31T13:18:59;1.67;;;1.23;;
691;SDS011;328;50.086;8.576;2023-05-31T13:21:28;2.53;;;1.40;;
691;SDS011;328;50.086;8.576;2023-05-31T13:23:58;3.67;;;1.33;;
691;SDS011;328;50.086;8.576;2023-05-31T13:26:26;8.13;;;1.10;;
691;SDS011;328;50.086;8.576;2023-05-31T13:28:56;2.10;;;1.30;;
691;SDS011;328;50.086;8.576;2023-05-31T13:31:25;4.17;;;1.40;;
691;SDS011;328;50.086;8.576;2023-05-31T13:33:55;1.23;;;1.00;;
691;SDS011;328;50.086;8.576;2023-05-31T13:36:23;2.80;;;1.97;;
691;SDS011;328;50.086;8.576;2023-05-31T13:38:51;3.23;;;1.50;;
691;SDS011;328;50.086;8.576;2023-05-31T13:41:19;1.97;;;1.17;;
691;SDS011;328;50.086;8.576;2023-05-31T13:43:48;1.77;;;1.10;;
691;SDS011;328;50.086;8.576;2023-05-31T13:46:19;2.17;;;0.90;;
691;SDS011;328;50.086;8.576;2023-05-31T13:48:47;4.50;;;1.33;;
691;SDS011;328;50.086;8.576;2023-05-31T13:51:15;2.60;;;1.33;;
691;SDS011;328;50.086;8.576;2023-05-31T13:53:43;2.27;;;1.73;;
691;SDS011;328;50.086;8.576;2023-05-31T13:56:10;2.53;;;1.30;;
691;SDS011;328;50.086;8.576;2023-05-31T13:58:38;3.07;;;1.20;;
691;SDS011;328;50.086;8.576;2023-05-31T14:01:06;3.90;;;1.40;;
691;SDS011;328;50.086;8.576;2023-05-31T14:03:36;1.63;;;1.30;;
691;SDS011;328;50.086;8.576;2023-05-31T14:06:04;2.63;;;1.50;;
691;SDS011;328;50.086;8.576;2023-05-31T14:08:32;1.97;;;1.00;;
691;SDS011;328;50.086;8.576;2023-05-31T14:11:00;2.20;;;1.33;;
691;SDS011;328;50.086;8.576;2023-05-31T14:13:28;2.03;;;1.50;;
691;SDS011;328;50.086;8.576;2023-05-31T14:15:56;4.03;;;1.40;;
691;SDS011;328;50.086;8.576;2023-05-31T14:18:25;3.43;;;1.30;;
691;SDS011;328;50.086;8.576;2023-05-31T14:20:54;2.03;;;1.47;;
691;SDS011;328;50.086;8.576;2023-05-31T14:23:21;2.70;;;1.00;;
691;SDS011;328;50.086;8.576;2023-05-31T14:25:49;4.70;;;1.50;;
691;SDS011;328;50.086;8.576;2023-05-31T14:28:17;1.50;;;1.13;;
691;SDS011;328;50.086;8.576;2023-05-31T14:30:44;1.60;;;1.23;;
691;SDS011;328;50.086;8.576;2023-05-31T14:33:12;1.80;;;1.20;;
691;SDS011;328;50.086;8.576;2023-05-31T14:35:40;3.47;;;1.50;;
691;SDS011;328;50.086;8.576;2023-05-31T14:38:10;5.33;;;1.17;;
691;SDS011;328;50.086;8.576;2023-05-31T14:41:00;5.03;;;1.10;;
691;SDS011;328;50.086;8.576;2023-05-31T14:43:32;1.43;;;0.90;;
691;SDS011;328;50.086;8.576;2023-05-31T14:46:00;4.63;;;1.50;;
691;SDS011;328;50.086;8.576;2023-05-31T14:48:27;1.57;;;1.10;;
691;SDS011;328;50.086;8.576;2023-05-31T14:50:55;3.47;;;1.40;;
691;SDS011;328;50.086;8.576;2023-05-31T14:53:24;1.53;;;1.27;;
691;SDS011;328;50.086;8.576;2023-05-31T14:55:52;2.20;;;1.20;;
691;SDS011;328;50.086;8.576;2023-05-31T14:58:39;4.23;;;1.60;;
691;SDS011;328;50.086;8.576;2023-05-31T15:01:08;2.33;;;1.83;;
691;SDS011;328;50.086;8.576;2023-05-31T15:03:36;2.10;;;1.43;;
691;SDS011;328;50.086;8.576;2023-05-31T15:06:04;1.77;;;1.10;;
691;SDS011;328;50.086;8.576;2023-05-31T15:08:33;2.13;;;1.47;;
691;SDS011;328;50.086;8.576;2023-05-31T15:11:01;2.73;;;1.80;;
691;SDS011;328;50.086;8.576;2023-05-31T15:13:29;2.13;;;1.47;;
691;SDS011;328;50.086;8.576;2023-05-31T15:15:57;5.70;;;1.90;;
691;SDS011;328;50.086;8.576;2023-05-31T15:18:24;2.60;;;1.40;;
691;SDS011;328;50.086;8.576;2023-05-31T15:20:52;4.30;;;1.33;;
691;SDS011;328;50.086;8.576;2023-05-31T15:23:20;4.40;;;1.17;;
691;SDS011;328;50.086;8.576;2023-05-31T15:25:49;1.50;;;1.30;;
691;SDS011;328;50.086;8.576;2023-05-31T15:28:17;3.50;;;1.60;;
691;SDS011;328;50.086;8.576;2023-05-31T15:30:44;3.00;;;1.23;;
691;SDS011;328;50.086;8.576;2023-05-31T15:33:12;3.30;;;1.40;;
691;SDS011;328;50.086;8.576;2023-05-31T15:35:39;2.47;;;1.50;;
691;SDS011;328;50.086;8.576;2023-05-31T15:38:07;3.13;;;1.27;;
691;SDS011;328;50.086;8.576;2023-05-31T15:40:34;2.80;;;0.90;;
691;SDS011;328;50.086;8.576;2023-05-31T15:43:04;1.47;;;1.20;;
691;SDS011;328;50.086;8.576;2023-05-31T15:45:31;2.63;;;1.40;;
691;SDS011;328;50.086;8.576;2023-05-31T15:47:59;2.40;;;1.37;;
691;SDS011;328;50.086;8.576;2023-05-31T15:50:27;3.23;;;1.50;;
691;SDS011;328;50.086;8.576;2023-05-31T15:52:57;3.90;;;1.60;;
691;SDS011;328;50.086;8.576;2023-05-31T15:55:24;2.97;;;1.50;;
691;SDS011;328;50.086;8.576;2023-05-31T15:57:55;2.77;;;1.80;;